Time;durP1;ratioP1;P1;durP2;ratioP2;P2;SDS_P1;SDS_P2;PMS_P1;PMS_P2;Temp;Humidity;BMP_temperature;BMP_pressure;BME280_temperature;BME280_humidity;BME280_pressure;Samples;Min_cycle;Max_cycle;Signal;HPM_P1;HPM_P2
2021/10/01 00:37:30;;;;;;;1.00;1.00;;;7.30;99.90;;;;;;5026582;28;20513;-80
2021/10/01 00:41:54;;;;;;;0.93;0.93;;;7.10;99.90;;;;;;5014989;28;20413;-81
2021/10/01 00:46:08;;;;;;;0.90;0.90;;;7.30;99.90;;;;;;4887226;29;20409;-82
2021/10/01 00:59:35;;;;;;;0.90;0.90;;;7.20;99.90;;;;;;5676702;22;20405;-80
2021/10/01 01:03:17;;;;;;;0.85;0.85;;;7.20;99.90;;;;;;4980492;28;20413;-80
2021/10/01 01:06:59;;;;;;;1.33;1.10;;;7.10;99.90;;;;;;5059494;28;20418;-80
2021/10/01 01:15:14;;;;;;;1.45;0.82;;;7.00;99.90;;;;;;4876719;29;20452;-80
2021/10/01 01:23:26;;;;;;;0.88;0.88;;;6.90;99.90;;;;;;5007457;28;20511;-83
2021/10/01 03:04:16;;;;;;;1.20;1.10;;;6.10;99.90;;;;;;5411433;22;20397;-81
2021/10/01 04:07:21;;;;;;;1.07;1.07;;;6.00;99.90;;;;;;5048027;28;20473;-80
2021/10/01 04:11:03;;;;;;;1.90;1.35;;;6.00;99.90;;;;;;6147454;22;20395;-79
2021/10/01 04:19:40;;;;;;;0.80;0.80;;;6.00;99.90;;;;;;4859662;29;20565;-80
2021/10/01 04:26:53;;;;;;;1.10;1.10;;;5.90;99.90;;;;;;4826783;29;20418;-81
2021/10/01 04:29:39;;;;;;;0.80;0.80;;;5.90;99.90;;;;;;5016871;28;20421;-80
2021/10/01 04:32:44;;;;;;;2.10;1.43;;;5.90;99.90;;;;;;4989169;28;20420;-81
2021/10/01 04:35:31;;;;;;;1.20;1.20;;;5.80;99.90;;;;;;5034270;28;20548;-81
2021/10/01 04:42:39;;;;;;;0.93;0.93;;;5.70;99.90;;;;;;5016931;28;20430;-81
2021/10/01 04:45:28;;;;;;;1.97;1.50;;;5.80;99.90;;;;;;5027018;28;20437;-80
2021/10/01 04:48:17;;;;;;;1.00;1.00;;;5.70;99.90;;;;;;5009686;28;20435;-80
2021/10/01 04:51:54;;;;;;;1.00;1.00;;;5.70;99.90;;;;;;5039181;28;20432;-81
2021/10/01 04:58:54;;;;;;;0.98;0.98;;;5.70;99.90;;;;;;5126424;22;20400;-81
2021/10/01 05:04:44;;;;;;;0.80;0.80;;;5.70;99.90;;;;;;5145432;22;20431;-81
2021/10/01 05:07:41;;;;;;;1.23;1.13;;;5.90;99.90;;;;;;5007316;28;20430;-81
2021/10/01 05:11:11;;;;;;;1.40;1.20;;;5.80;99.90;;;;;;4986312;28;20488;-82
2021/10/01 05:18:31;;;;;;;1.10;1.10;;;5.70;99.90;;;;;;5043591;28;20410;-81
2021/10/01 05:22:04;;;;;;;1.00;1.00;;;5.70;99.90;;;;;;5027638;28;20396;-81
2021/10/01 05:24:54;;;;;;;1.15;1.13;;;5.60;99.90;;;;;;5014487;28;20498;-81
2021/10/01 05:27:49;;;;;;;6.65;3.28;;;5.60;99.90;;;;;;5011000;28;20409;-82
2021/10/01 05:34:22;;;;;;;1.98;1.50;;;5.60;99.90;;;;;;5008692;28;20410;-81
2021/10/01 05:37:17;;;;;;;1.10;1.10;;;5.70;99.90;;;;;;5019166;28;20456;-81
2021/10/01 05:40:57;;;;;;;1.80;1.40;;;5.70;99.90;;;;;;5008019;28;20407;-82
2021/10/01 05:50:43;;;;;;;1.40;1.30;;;5.80;99.90;;;;;;4992854;28;20454;-81
2021/10/01 05:54:21;;;;;;;1.10;1.10;;;5.80;99.90;;;;;;5007425;23;20421;-79
2021/10/01 06:01:41;;;;;;;1.35;1.25;;;6.00;99.90;;;;;;5010544;28;20379;-81
2021/10/01 06:05:21;;;;;;;1.50;1.40;;;6.20;99.90;;;;;;5010264;28;20418;-82
2021/10/01 06:08:46;;;;;;;2.60;1.38;;;6.20;99.90;;;;;;5009284;28;20417;-82
2021/10/01 06:12:25;;;;;;;1.42;1.33;;;6.20;99.90;;;;;;5012508;28;20420;-80
2021/10/01 06:15:20;;;;;;;2.73;2.53;;;6.50;99.90;;;;;;5007246;28;20415;-79
2021/10/01 06:18:07;;;;;;;1.85;1.60;;;6.60;99.90;;;;;;5012311;28;20418;-81
2021/10/01 06:20:53;;;;;;;1.52;1.20;;;6.60;99.90;;;;;;4978879;28;20404;-82
2021/10/01 06:23:41;;;;;;;3.45;1.33;;;6.80;99.90;;;;;;5005304;28;20408;-83
2021/10/01 06:26:55;;;;;;;1.50;1.40;;;6.80;99.90;;;;;;5000683;28;20404;-81
2021/10/01 06:29:40;;;;;;;1.25;1.17;;;6.90;99.90;;;;;;4984647;28;20488;-82
2021/10/01 06:32:35;;;;;;;1.45;1.35;;;7.10;99.90;;;;;;5011615;28;20500;-82
2021/10/01 06:35:19;;;;;;;1.20;1.20;;;7.20;99.90;;;;;;4995927;28;20957;-81
2021/10/01 06:38:04;;;;;;;2.70;1.30;;;7.30;99.90;;;;;;4975324;28;20451;-81
2021/10/01 06:40:48;;;;;;;1.10;1.03;;;7.70;99.90;;;;;;4977346;28;20435;-82
2021/10/01 06:43:33;;;;;;;1.45;1.35;;;7.70;99.90;;;;;;4986827;28;20419;-81
2021/10/01 06:46:26;;;;;;;2.30;1.50;;;7.80;99.90;;;;;;4951876;28;20419;-81
2021/10/01 06:49:27;;;;;;;1.40;1.30;;;7.90;99.90;;;;;;4983637;28;20404;-82
2021/10/01 07:39:23;;;;;;;1.38;1.10;;;9.90;99.90;;;;;;5006611;28;20412;-79
2021/10/01 08:20:07;;;;;;;1.70;1.20;;;11.80;99.90;;;;;;5004529;28;20413;-81
2021/10/01 08:23:23;;;;;;;1.45;1.25;;;11.90;99.90;;;;;;4926133;28;20407;-80
2021/10/01 08:27:28;;;;;;;1.02;1.00;;;12.20;99.90;;;;;;4915988;28;20504;-80
2021/10/01 08:38:50;;;;;;;1.10;1.10;;;12.90;99.90;;;;;;4975556;28;20439;-80
2021/10/01 08:42:48;;;;;;;1.23;1.23;;;13.10;99.90;;;;;;4952121;28;20421;-80
2021/10/01 08:46:04;;;;;;;1.17;1.00;;;13.20;99.90;;;;;;4930251;28;20491;-80
2021/10/01 08:49:10;;;;;;;1.27;1.17;;;13.30;99.90;;;;;;4989552;28;20409;-80
2021/10/01 08:51:55;;;;;;;1.20;1.10;;;13.40;99.90;;;;;;4987190;28;20403;-79
2021/10/01 08:54:41;;;;;;;0.93;0.93;;;13.50;99.90;;;;;;4962610;28;20536;-80
2021/10/01 08:57:26;;;;;;;1.13;1.02;;;13.60;99.90;;;;;;5005492;28;20416;-82
2021/10/01 09:00:15;;;;;;;1.20;1.10;;;13.70;99.90;;;;;;4983724;28;20416;-81
2021/10/01 09:03:00;;;;;;;0.90;0.90;;;13.90;99.90;;;;;;4979943;28;20474;-79
2021/10/01 09:05:45;;;;;;;0.90;0.90;;;13.90;99.90;;;;;;4987189;28;20396;-80
2021/10/01 09:08:30;;;;;;;1.17;1.08;;;14.00;99.90;;;;;;4969197;28;20407;-79
2021/10/01 09:11:15;;;;;;;0.93;0.93;;;14.00;99.90;;;;;;4970708;28;20412;-81
2021/10/01 09:14:06;;;;;;;1.52;1.30;;;14.20;99.90;;;;;;4978391;28;20419;-80
2021/10/01 09:16:51;;;;;;;1.05;0.95;;;14.30;99.90;;;;;;4980267;28;20404;-80
2021/10/01 09:19:39;;;;;;;0.93;0.93;;;14.40;99.90;;;;;;4980773;28;20465;-80
2021/10/01 09:22:38;;;;;;;1.35;1.08;;;14.50;99.90;;;;;;4980362;28;20393;-80
2021/10/01 09:25:44;;;;;;;1.03;1.03;;;14.70;99.90;;;;;;4987799;28;20409;-80
2021/10/01 09:29:15;;;;;;;1.42;1.02;;;14.80;99.90;;;;;;4992523;28;20413;-80
2021/10/01 09:32:17;;;;;;;0.85;0.85;;;14.90;99.90;;;;;;5013768;28;20455;-79
2021/10/01 09:35:59;;;;;;;0.98;0.98;;;15.00;99.90;;;;;;4956631;28;20428;-79
2021/10/01 09:38:48;;;;;;;0.80;0.80;;;15.00;99.90;;;;;;5019858;28;20419;-81
2021/10/01 09:43:04;;;;;;;1.20;1.00;;;15.10;99.90;;;;;;5013079;28;20487;-79
2021/10/01 09:46:12;;;;;;;1.30;1.00;;;15.20;99.90;;;;;;4980306;28;20422;-80
2021/10/01 09:49:03;;;;;;;1.40;0.82;;;15.40;99.90;;;;;;5002906;28;20426;-80
2021/10/01 09:51:56;;;;;;;1.10;1.02;;;15.50;99.90;;;;;;4986241;28;20422;-80
2021/10/01 09:54:45;;;;;;;0.93;0.93;;;15.80;99.90;;;;;;4976233;28;20439;-79
2021/10/01 09:58:03;;;;;;;1.00;1.00;;;15.90;99.90;;;;;;4998313;28;20417;-80
2021/10/01 10:01:00;;;;;;;0.75;0.75;;;16.10;99.90;;;;;;4981371;28;20473;-80
2021/10/01 10:03:51;;;;;;;0.82;0.82;;;16.30;99.90;;;;;;4993140;28;20527;-80
2021/10/01 10:06:46;;;;;;;0.90;0.90;;;16.40;99.90;;;;;;4990064;28;20469;-80
2021/10/01 10:10:07;;;;;;;1.70;0.93;;;16.40;99.90;;;;;;4993053;28;20475;-79
2021/10/01 10:12:51;;;;;;;0.70;0.70;;;16.70;99.90;;;;;;4987771;28;20530;-80
2021/10/01 10:16:34;;;;;;;1.00;1.00;;;16.80;99.90;;;;;;4954980;28;20428;-80
2021/10/01 10:19:49;;;;;;;1.10;1.00;;;17.10;99.90;;;;;;5002262;28;20925;-80
2021/10/01 10:22:54;;;;;;;0.90;0.90;;;17.30;99.90;;;;;;5002448;28;20806;-80
2021/10/01 10:26:05;;;;;;;2.00;0.90;;;17.50;99.90;;;;;;5009657;28;20427;-81
2021/10/01 10:29:01;;;;;;;0.88;0.88;;;17.70;99.90;;;;;;5000743;28;20421;-80
2021/10/01 10:35:23;;;;;;;0.80;0.80;;;17.90;99.90;;;;;;4991587;28;20418;-79
2021/10/01 10:38:37;;;;;;;0.85;0.85;;;18.10;99.90;;;;;;4952393;28;20459;-80
2021/10/01 10:41:36;;;;;;;0.80;0.80;;;18.40;99.90;;;;;;5013349;28;20402;-80
2021/10/01 10:44:53;;;;;;;1.30;0.90;;;18.60;99.90;;;;;;4993653;28;20432;-80
2021/10/01 10:47:55;;;;;;;0.88;0.88;;;18.90;99.90;;;;;;5003049;28;20520;-80
2021/10/01 10:51:04;;;;;;;1.73;0.93;;;19.50;99.90;;;;;;4993914;28;20442;-80
2021/10/01 10:54:16;;;;;;;0.80;0.80;;;19.50;99.90;;;;;;4992208;28;20488;-80
2021/10/01 10:57:25;;;;;;;1.50;0.70;;;19.50;99.90;;;;;;4999309;28;20420;-81
2021/10/01 11:00:40;;;;;;;0.77;0.77;;;19.50;99.90;;;;;;4954834;28;20870;-80
2021/10/01 11:03:29;;;;;;;0.77;0.77;;;19.60;99.90;;;;;;5001438;28;20412;-80
2021/10/01 11:06:18;;;;;;;1.27;1.05;;;19.90;99.90;;;;;;4967079;28;20403;-80
2021/10/01 11:09:26;;;;;;;0.80;0.80;;;19.90;99.90;;;;;;4967486;28;20398;-80
2021/10/01 11:12:22;;;;;;;1.25;1.00;;;19.80;99.90;;;;;;4996799;28;20499;-80
2021/10/01 11:15:35;;;;;;;0.85;0.80;;;20.50;99.90;;;;;;5009079;28;20422;-79
2021/10/01 11:18:35;;;;;;;1.05;0.98;;;20.70;99.90;;;;;;4990400;28;20410;-80
2021/10/01 11:21:26;;;;;;;0.80;0.80;;;20.80;99.90;;;;;;4992380;28;20443;-81
2021/10/01 11:24:21;;;;;;;1.00;0.70;;;20.90;99.90;;;;;;4985103;28;20454;-79
2021/10/01 11:27:06;;;;;;;0.73;0.73;;;21.10;99.90;;;;;;4990084;28;20400;-79
2021/10/01 11:29:50;;;;;;;0.75;0.75;;;21.50;99.90;;;;;;4958210;28;20418;-79
2021/10/01 11:32:35;;;;;;;1.50;0.77;;;21.30;99.90;;;;;;4980401;28;20436;-79
2021/10/01 11:35:53;;;;;;;0.83;0.83;;;21.50;99.50;;;;;;5007088;28;20437;-79
2021/10/01 11:39:18;;;;;;;0.65;0.65;;;21.50;99.80;;;;;;5025320;28;20503;-79
2021/10/01 11:42:02;;;;;;;0.90;0.90;;;21.50;98.20;;;;;;4992120;28;20490;-79
2021/10/01 11:44:49;;;;;;;0.73;0.73;;;21.50;98.70;;;;;;4984757;28;20406;-79
2021/10/01 11:47:38;;;;;;;0.77;0.77;;;21.50;96.20;;;;;;4999449;28;20405;-79
2021/10/01 11:50:42;;;;;;;0.60;0.60;;;21.70;97.60;;;;;;5028660;28;20435;-81
2021/10/01 11:53:27;;;;;;;0.73;0.73;;;21.90;95.80;;;;;;5016225;28;20406;-80
2021/10/01 11:56:13;;;;;;;0.60;0.60;;;21.90;96.80;;;;;;4978514;28;20995;-79
2021/10/01 11:58:57;;;;;;;0.70;0.70;;;22.20;96.80;;;;;;4954577;28;20384;-80
2021/10/01 12:01:41;;;;;;;0.80;0.80;;;22.80;98.10;;;;;;4952235;28;20484;-80
2021/10/01 12:04:30;;;;;;;0.70;0.70;;;22.50;93.40;;;;;;4960648;28;20594;-80
2021/10/01 12:07:14;;;;;;;1.65;1.00;;;22.50;93.50;;;;;;4981662;28;20504;-79
2021/10/01 12:10:06;;;;;;;0.88;0.88;;;22.20;92.80;;;;;;4975774;28;20462;-79
2021/10/01 12:13:09;;;;;;;0.80;0.80;;;22.00;94.60;;;;;;4981139;28;20470;-80
2021/10/01 12:16:10;;;;;;;0.70;0.70;;;22.00;93.80;;;;;;5014622;28;21168;-80
2021/10/01 12:18:55;;;;;;;0.80;0.80;;;22.00;91.60;;;;;;4977998;28;20408;-80
2021/10/01 12:21:39;;;;;;;0.70;0.70;;;22.00;94.00;;;;;;4973293;28;20935;-79
2021/10/01 12:24:23;;;;;;;1.05;0.65;;;21.70;92.70;;;;;;4967698;28;20406;-79
2021/10/01 12:27:08;;;;;;;0.68;0.68;;;21.70;91.60;;;;;;4934712;28;20461;-79
2021/10/01 12:29:52;;;;;;;0.60;0.60;;;21.40;91.60;;;;;;4961063;28;20411;-80
2021/10/01 12:32:36;;;;;;;0.90;0.90;;;21.40;93.20;;;;;;4966356;28;20470;-78
2021/10/01 12:35:21;;;;;;;0.85;0.85;;;21.10;91.50;;;;;;4987251;28;20457;-79
2021/10/01 12:38:06;;;;;;;0.68;0.68;;;21.20;93.00;;;;;;4975886;28;20407;-79
2021/10/01 12:41:15;;;;;;;0.70;0.70;;;21.10;92.60;;;;;;4991101;28;20440;-79
2021/10/01 12:44:01;;;;;;;0.80;0.80;;;21.10;92.30;;;;;;4991259;28;20962;-79
2021/10/01 12:46:47;;;;;;;0.90;0.90;;;20.90;91.90;;;;;;4965075;28;20436;-79
2021/10/01 12:49:31;;;;;;;0.80;0.80;;;21.00;93.00;;;;;;4950059;28;20409;-79
2021/10/01 12:52:20;;;;;;;0.65;0.65;;;21.10;93.20;;;;;;4989280;28;20474;-79
2021/10/01 12:55:14;;;;;;;0.73;0.73;;;21.00;91.30;;;;;;4984114;28;20470;-79
2021/10/01 12:57:58;;;;;;;0.70;0.70;;;20.90;92.60;;;;;;5019961;28;20447;-78
2021/10/01 13:00:42;;;;;;;0.60;0.60;;;21.00;92.40;;;;;;4997195;28;20440;-78
2021/10/01 13:03:27;;;;;;;0.80;0.80;;;21.10;93.60;;;;;;4999405;28;20772;-79
2021/10/01 13:06:28;;;;;;;0.77;0.77;;;21.10;90.40;;;;;;4978434;28;20424;-79
2021/10/01 13:09:37;;;;;;;0.98;0.90;;;20.80;91.50;;;;;;5003862;28;20455;-79
2021/10/01 13:12:27;;;;;;;0.73;0.73;;;20.70;93.00;;;;;;5009294;28;20404;-79
2021/10/01 13:15:37;;;;;;;0.90;0.85;;;20.60;92.50;;;;;;4977394;28;20488;-80
2021/10/01 13:18:39;;;;;;;0.63;0.63;;;20.40;92.80;;;;;;4987971;28;20455;-79
2021/10/01 13:21:23;;;;;;;0.77;0.77;;;20.20;93.70;;;;;;4992802;28;20815;-79
2021/10/01 13:24:08;;;;;;;0.65;0.65;;;20.10;94.20;;;;;;4986550;28;20511;-79
2021/10/01 13:26:52;;;;;;;0.80;0.80;;;20.00;93.50;;;;;;4977797;28;21001;-79
2021/10/01 13:29:36;;;;;;;0.75;0.75;;;19.90;93.90;;;;;;4962360;28;21115;-79
2021/10/01 13:32:21;;;;;;;0.70;0.70;;;19.90;93.40;;;;;;4972945;28;20396;-79
2021/10/01 13:35:05;;;;;;;0.63;0.63;;;19.80;94.50;;;;;;4964235;28;20416;-79
2021/10/01 13:37:50;;;;;;;0.80;0.80;;;19.60;93.40;;;;;;4950141;28;20400;-79
2021/10/01 13:40:35;;;;;;;0.60;0.60;;;19.60;93.10;;;;;;4963980;28;20496;-79
2021/10/01 13:43:19;;;;;;;0.80;0.80;;;19.80;93.70;;;;;;4972585;28;20423;-80
2021/10/01 13:46:05;;;;;;;0.75;0.75;;;20.10;92.80;;;;;;5002084;28;20493;-80
2021/10/01 13:48:50;;;;;;;0.95;0.90;;;20.30;93.20;;;;;;4989007;28;20975;-80
2021/10/01 13:51:34;;;;;;;0.90;0.90;;;20.20;93.00;;;;;;4987781;28;20914;-80
2021/10/01 13:54:19;;;;;;;0.82;0.80;;;20.70;95.10;;;;;;5013025;28;20412;-80
2021/10/01 13:57:03;;;;;;;0.83;0.77;;;20.60;92.10;;;;;;4996740;28;20460;-80
2021/10/01 13:59:49;;;;;;;0.60;0.60;;;20.30;92.30;;;;;;4959286;28;20465;-80
2021/10/01 14:02:35;;;;;;;0.88;0.88;;;20.40;93.40;;;;;;4966198;28;20419;-80
2021/10/01 14:05:19;;;;;;;0.70;0.70;;;20.00;91.30;;;;;;4993874;28;20418;-80
2021/10/01 14:08:04;;;;;;;0.80;0.80;;;19.80;92.10;;;;;;4978130;28;20409;-79
2021/10/01 14:10:48;;;;;;;0.90;0.70;;;19.70;93.00;;;;;;4961172;28;20437;-80
2021/10/01 14:13:32;;;;;;;0.70;0.70;;;19.60;93.40;;;;;;4964586;28;20486;-80
2021/10/01 14:16:17;;;;;;;0.70;0.70;;;19.50;92.30;;;;;;4984542;28;20474;-80
2021/10/01 14:19:01;;;;;;;0.70;0.70;;;19.40;93.40;;;;;;4972231;28;20401;-81
2021/10/01 14:21:46;;;;;;;2.30;0.90;;;19.30;93.50;;;;;;5003834;28;20415;-82
2021/10/01 14:24:30;;;;;;;3.58;0.80;;;19.20;93.90;;;;;;4973922;28;20896;-82
2021/10/01 14:27:15;;;;;;;0.82;0.82;;;19.20;93.90;;;;;;4982087;28;20415;-79
2021/10/01 14:30:00;;;;;;;1.20;0.80;;;18.90;94.70;;;;;;4982307;28;20481;-80
2021/10/01 14:32:45;;;;;;;0.63;0.63;;;18.80;94.40;;;;;;4982560;28;20417;-80
2021/10/01 14:35:29;;;;;;;0.70;0.70;;;18.80;94.50;;;;;;4978495;28;20409;-79
2021/10/01 14:38:14;;;;;;;0.90;0.90;;;18.60;94.40;;;;;;4965509;28;20414;-79
2021/10/01 14:40:58;;;;;;;0.77;0.77;;;18.60;94.00;;;;;;4959345;28;20504;-80
2021/10/01 14:43:42;;;;;;;0.80;0.80;;;18.50;94.90;;;;;;4973219;28;20486;-80
2021/10/01 14:46:28;;;;;;;0.70;0.70;;;18.40;94.90;;;;;;4982616;28;21119;-80
2021/10/01 14:49:13;;;;;;;2.10;0.75;;;18.40;95.20;;;;;;4977709;28;20406;-80
2021/10/01 14:51:57;;;;;;;0.90;0.90;;;18.40;95.70;;;;;;4984406;28;20766;-79
2021/10/01 14:54:41;;;;;;;0.85;0.80;;;18.30;95.30;;;;;;4970651;28;20532;-79
2021/10/01 14:57:25;;;;;;;0.90;0.90;;;18.30;95.50;;;;;;4966394;28;20469;-79
2021/10/01 15:00:10;;;;;;;0.65;0.65;;;18.20;95.50;;;;;;4968098;28;20407;-79
2021/10/01 15:02:56;;;;;;;0.70;0.70;;;18.10;95.30;;;;;;4965090;28;20386;-79
2021/10/01 15:05:40;;;;;;;1.05;1.00;;;18.10;95.00;;;;;;4964776;28;20929;-79
2021/10/01 15:08:25;;;;;;;1.40;1.30;;;18.00;95.10;;;;;;4975503;28;20485;-79
2021/10/01 15:11:09;;;;;;;0.82;0.82;;;18.00;95.70;;;;;;4947502;28;21054;-79
2021/10/01 15:13:53;;;;;;;0.80;0.80;;;17.90;94.70;;;;;;4970723;28;20416;-79
2021/10/01 15:16:38;;;;;;;0.85;0.85;;;17.80;94.70;;;;;;4988038;28;20440;-80
2021/10/01 15:19:22;;;;;;;0.60;0.60;;;17.70;95.20;;;;;;4961704;28;20438;-79
2021/10/01 15:22:06;;;;;;;0.70;0.70;;;17.70;94.90;;;;;;4988161;28;20411;-79
2021/10/01 15:24:50;;;;;;;0.70;0.70;;;17.70;95.30;;;;;;4961167;28;20411;-79
2021/10/01 15:27:35;;;;;;;0.73;0.73;;;17.60;94.80;;;;;;4947354;28;20407;-79
2021/10/01 15:30:20;;;;;;;0.60;0.60;;;17.60;95.10;;;;;;4951384;28;20404;-79
2021/10/01 15:33:06;;;;;;;0.57;0.57;;;17.60;95.30;;;;;;4954973;28;20934;-79
2021/10/01 15:35:50;;;;;;;0.70;0.70;;;17.60;95.40;;;;;;4976154;28;20417;-80
2021/10/01 15:38:34;;;;;;;0.70;0.70;;;17.60;96.30;;;;;;4970504;28;21047;-80
2021/10/01 15:41:19;;;;;;;0.70;0.70;;;17.60;96.80;;;;;;4965456;28;20400;-80
2021/10/01 15:44:03;;;;;;;0.70;0.70;;;17.60;97.00;;;;;;4969671;28;21187;-80
2021/10/01 15:46:47;;;;;;;0.60;0.60;;;17.50;97.00;;;;;;5010084;28;20463;-80
2021/10/01 15:49:32;;;;;;;0.63;0.63;;;17.50;97.30;;;;;;4976939;28;20419;-80
2021/10/01 15:52:17;;;;;;;0.80;0.80;;;17.50;96.70;;;;;;4976279;28;20410;-80
2021/10/01 15:55:08;;;;;;;1.17;0.80;;;17.40;96.60;;;;;;5006200;28;20503;-80
2021/10/01 15:58:33;;;;;;;3.63;0.80;;;17.40;97.20;;;;;;4979344;28;20405;-81
2021/10/01 16:01:20;;;;;;;2.15;0.80;;;17.40;97.20;;;;;;4970550;28;20416;-80
2021/10/01 16:04:05;;;;;;;0.70;0.70;;;17.40;97.20;;;;;;4997633;28;20831;-80
2021/10/01 16:06:49;;;;;;;0.70;0.70;;;17.30;97.80;;;;;;4996268;28;20445;-79
2021/10/01 16:09:33;;;;;;;0.70;0.70;;;17.20;97.60;;;;;;4968135;28;20412;-79
2021/10/01 16:12:19;;;;;;;0.70;0.70;;;17.10;98.20;;;;;;4969984;28;20481;-79
2021/10/01 16:15:03;;;;;;;0.70;0.70;;;17.00;98.10;;;;;;4964270;28;20420;-79
2021/10/01 16:17:50;;;;;;;0.68;0.68;;;16.90;98.50;;;;;;4957137;28;20447;-80
2021/10/01 16:20:35;;;;;;;0.70;0.70;;;16.80;98.80;;;;;;4995982;28;20472;-80
2021/10/01 16:23:19;;;;;;;0.80;0.80;;;16.70;98.90;;;;;;4964334;28;20450;-79
2021/10/01 16:26:03;;;;;;;0.70;0.70;;;16.60;98.70;;;;;;4963752;28;20404;-80
2021/10/01 16:28:48;;;;;;;0.68;0.68;;;16.50;99.00;;;;;;4979553;28;20411;-80
2021/10/01 16:31:32;;;;;;;0.60;0.60;;;16.40;99.30;;;;;;4979243;28;20457;-79
2021/10/01 16:34:19;;;;;;;0.68;0.68;;;16.40;99.40;;;;;;4965551;28;20407;-79
2021/10/01 16:37:04;;;;;;;0.70;0.70;;;16.30;99.70;;;;;;4961794;28;20452;-80
2021/10/01 16:39:48;;;;;;;0.60;0.60;;;16.20;99.80;;;;;;4977824;28;20399;-79
2021/10/01 16:42:32;;;;;;;1.55;1.05;;;16.20;99.90;;;;;;4991168;28;20939;-80
2021/10/01 16:45:20;;;;;;;1.38;1.27;;;16.00;99.90;;;;;;4981965;28;20427;-80
2021/10/01 16:48:08;;;;;;;0.80;0.80;;;15.90;99.90;;;;;;4979741;28;20408;-80
2021/10/01 16:50:53;;;;;;;0.93;0.93;;;15.90;99.90;;;;;;5007088;28;20380;-79
2021/10/01 16:53:38;;;;;;;0.73;0.73;;;15.80;99.90;;;;;;5001107;28;20397;-79
2021/10/01 16:56:22;;;;;;;0.80;0.80;;;15.70;99.90;;;;;;4978487;28;20463;-79
2021/10/01 16:59:07;;;;;;;0.90;0.82;;;15.60;99.90;;;;;;4951303;28;20404;-80
2021/10/01 17:01:51;;;;;;;0.77;0.77;;;15.60;99.90;;;;;;4979032;28;20534;-80
2021/10/01 17:04:35;;;;;;;0.80;0.80;;;15.50;99.90;;;;;;4979759;28;20399;-79
2021/10/01 17:07:19;;;;;;;0.80;0.80;;;15.40;99.90;;;;;;4984179;28;20465;-80
2021/10/01 17:10:05;;;;;;;0.70;0.70;;;15.40;99.90;;;;;;4961059;28;20779;-80
2021/10/01 17:12:49;;;;;;;0.75;0.75;;;15.30;99.90;;;;;;4963922;28;20412;-80
2021/10/01 17:15:34;;;;;;;0.82;0.77;;;15.20;99.90;;;;;;4983707;28;20411;-80
2021/10/01 17:18:19;;;;;;;0.95;0.88;;;15.10;99.90;;;;;;4997173;28;20415;-79
2021/10/01 17:21:03;;;;;;;0.80;0.80;;;15.00;99.90;;;;;;4964451;28;20401;-80
2021/10/01 17:23:47;;;;;;;0.80;0.80;;;14.90;99.90;;;;;;4991320;28;20760;-80
2021/10/01 17:26:33;;;;;;;0.80;0.80;;;14.90;99.90;;;;;;4979051;28;20420;-79
2021/10/01 17:29:17;;;;;;;0.70;0.70;;;14.90;99.90;;;;;;4980967;28;20415;-79
2021/10/01 17:32:02;;;;;;;0.60;0.60;;;14.80;99.90;;;;;;5006001;28;20396;-79
2021/10/01 17:34:47;;;;;;;0.77;0.77;;;14.80;99.90;;;;;;4996749;28;20413;-80
2021/10/01 17:37:31;;;;;;;0.95;0.95;;;14.70;99.90;;;;;;4974713;28;20547;-79
2021/10/01 17:40:15;;;;;;;0.90;0.90;;;14.70;99.90;;;;;;4951870;28;20436;-80
2021/10/01 17:42:59;;;;;;;1.70;1.10;;;14.60;99.90;;;;;;4987030;28;20392;-79
2021/10/01 17:45:44;;;;;;;0.80;0.80;;;14.60;99.90;;;;;;4993198;28;20476;-80
2021/10/01 17:48:28;;;;;;;1.30;1.20;;;14.50;99.90;;;;;;4975932;28;20413;-80
2021/10/01 17:51:13;;;;;;;1.00;1.00;;;14.50;99.90;;;;;;4974543;28;20426;-80
2021/10/01 17:53:57;;;;;;;1.10;1.10;;;14.50;99.90;;;;;;4984599;28;20496;-79
2021/10/01 17:56:41;;;;;;;1.00;1.00;;;14.40;99.90;;;;;;4970042;28;20464;-79
2021/10/01 17:59:26;;;;;;;1.35;1.25;;;14.40;99.90;;;;;;4977862;28;20463;-79
2021/10/01 18:02:11;;;;;;;1.50;0.80;;;14.40;99.90;;;;;;4954739;28;20400;-79
2021/10/01 18:04:55;;;;;;;1.38;1.27;;;14.30;99.90;;;;;;4982655;28;20415;-80
2021/10/01 18:07:39;;;;;;;0.93;0.93;;;14.30;99.90;;;;;;4987693;28;20549;-80
2021/10/01 18:10:25;;;;;;;1.02;1.02;;;14.30;99.90;;;;;;5010380;28;20427;-79
2021/10/01 18:13:09;;;;;;;1.23;1.05;;;14.20;99.90;;;;;;4950216;28;20456;-81
2021/10/01 18:15:54;;;;;;;1.17;1.08;;;14.20;99.90;;;;;;4991336;28;20404;-81
2021/10/01 18:18:38;;;;;;;1.30;1.20;;;14.10;99.90;;;;;;4948272;28;20923;-82
2021/10/01 18:21:22;;;;;;;1.23;1.17;;;14.10;99.90;;;;;;4995394;28;20401;-80
2021/10/01 18:24:06;;;;;;;1.30;1.20;;;14.10;99.90;;;;;;4975706;28;20464;-82
2021/10/01 18:26:51;;;;;;;2.20;1.25;;;14.00;99.90;;;;;;4979140;28;20447;-81
2021/10/01 18:29:35;;;;;;;1.48;1.27;;;13.90;99.90;;;;;;4964860;28;20404;-81
2021/10/01 18:32:19;;;;;;;1.30;1.20;;;13.90;99.90;;;;;;4999531;28;20412;-82
2021/10/01 18:35:04;;;;;;;1.40;1.25;;;13.90;99.90;;;;;;4963213;28;20520;-82
2021/10/01 18:37:48;;;;;;;1.35;1.27;;;13.90;99.90;;;;;;4963779;28;20443;-81
2021/10/01 18:40:33;;;;;;;1.63;1.40;;;13.90;99.90;;;;;;4982092;28;20438;-79
2021/10/01 18:43:19;;;;;;;1.67;1.58;;;13.80;99.90;;;;;;4981625;28;20404;-80
2021/10/01 18:46:03;;;;;;;1.67;1.58;;;13.80;99.90;;;;;;4970591;28;20383;-79
2021/10/01 18:48:47;;;;;;;1.52;1.38;;;13.80;99.90;;;;;;4991245;28;20403;-79
2021/10/01 18:51:32;;;;;;;2.53;1.48;;;13.80;99.90;;;;;;4978430;28;20408;-79
2021/10/01 18:54:16;;;;;;;1.48;1.38;;;13.70;99.90;;;;;;4977280;28;20455;-80
2021/10/01 18:57:01;;;;;;;2.33;1.52;;;13.70;99.90;;;;;;4975976;28;20413;-79
2021/10/01 18:59:45;;;;;;;3.40;1.70;;;13.70;99.90;;;;;;4998608;28;20499;-79
2021/10/01 19:02:31;;;;;;;1.53;1.43;;;13.60;99.90;;;;;;4974201;28;21231;-79
2021/10/01 19:05:16;;;;;;;1.50;1.40;;;13.50;99.90;;;;;;4974439;28;20435;-79
2021/10/01 19:08:00;;;;;;;1.67;1.40;;;13.50;99.90;;;;;;4990266;28;20408;-80
2021/10/01 19:10:44;;;;;;;3.53;1.58;;;13.40;99.90;;;;;;4944386;28;20403;-82
2021/10/01 19:13:29;;;;;;;1.55;1.45;;;13.40;99.90;;;;;;5000617;28;20447;-81
2021/10/01 19:16:13;;;;;;;1.40;1.30;;;13.30;99.90;;;;;;4950250;28;20471;-81
2021/10/01 19:18:58;;;;;;;1.40;1.30;;;13.30;99.90;;;;;;4974980;28;20917;-82
2021/10/01 19:21:44;;;;;;;1.50;1.40;;;13.20;99.90;;;;;;4963237;28;20544;-81
2021/10/01 19:24:34;;;;;;;1.93;1.67;;;13.20;99.90;;;;;;4951477;28;20452;-82
2021/10/01 19:30:24;;;;;;;1.70;1.60;;;13.10;99.90;;;;;;4997294;28;20462;-81
2021/10/01 19:33:08;;;;;;;1.95;1.85;;;13.00;99.90;;;;;;4977963;28;20412;-81
2021/10/01 19:35:53;;;;;;;2.30;2.10;;;13.00;99.90;;;;;;4965358;28;20435;-81
2021/10/01 19:38:37;;;;;;;2.53;2.33;;;12.90;99.90;;;;;;4948574;28;20423;-81
2021/10/01 19:41:22;;;;;;;2.00;1.70;;;12.90;99.90;;;;;;5012664;28;20406;-81
2021/10/01 19:44:06;;;;;;;1.60;1.50;;;12.80;99.90;;;;;;4969435;28;20479;-82
2021/10/01 19:46:50;;;;;;;1.57;1.47;;;12.80;99.90;;;;;;4990677;28;20772;-81
2021/10/01 19:49:35;;;;;;;2.63;1.45;;;12.80;99.90;;;;;;4971823;28;20450;-81
2021/10/01 19:52:19;;;;;;;1.38;1.27;;;12.70;99.90;;;;;;4975684;28;20563;-82
2021/10/01 19:55:06;;;;;;;1.75;1.50;;;12.60;99.90;;;;;;4988571;28;20428;-81
2021/10/01 19:57:53;;;;;;;4.20;1.73;;;12.50;99.90;;;;;;4994632;28;20923;-81
2021/10/01 20:00:47;;;;;;;2.58;1.63;;;12.50;99.90;;;;;;4993814;28;20412;-81
2021/10/01 20:03:32;;;;;;;1.70;1.60;;;12.40;99.90;;;;;;4978699;28;20432;-80
2021/10/01 20:06:17;;;;;;;1.70;1.60;;;12.30;99.90;;;;;;4992967;28;20408;-81
2021/10/01 20:09:01;;;;;;;1.70;1.60;;;12.30;99.90;;;;;;4991051;28;20408;-81
2021/10/01 20:11:45;;;;;;;1.50;1.40;;;12.20;99.90;;;;;;5007673;28;20417;-81
2021/10/01 20:14:29;;;;;;;1.98;1.65;;;12.20;99.90;;;;;;4956084;28;20406;-81
2021/10/01 20:17:14;;;;;;;1.63;1.52;;;12.20;99.90;;;;;;4980014;28;20417;-79
2021/10/01 20:20:08;;;;;;;1.73;1.63;;;12.20;99.90;;;;;;4982405;28;20406;-81
2021/10/01 20:23:01;;;;;;;3.20;1.77;;;12.20;99.90;;;;;;4996321;28;20632;-81
2021/10/01 20:47:07;;;;;;;1.73;1.63;;;12.10;99.90;;;;;;4988494;28;20386;-81
2021/10/01 20:49:52;;;;;;;1.25;1.20;;;12.00;99.90;;;;;;4950790;28;20981;-79
2021/10/01 20:52:36;;;;;;;1.83;1.50;;;11.90;99.90;;;;;;4972963;28;20816;-81
2021/10/01 20:55:21;;;;;;;1.90;1.70;;;11.90;99.90;;;;;;4951740;28;20478;-81
2021/10/01 20:58:14;;;;;;;1.30;1.20;;;11.80;99.90;;;;;;4978129;28;20965;-80
2021/10/01 21:01:15;;;;;;;1.70;1.35;;;11.80;99.90;;;;;;4987714;28;20819;-80
2021/10/01 21:04:33;;;;;;;1.75;1.63;;;11.70;99.90;;;;;;4994634;28;20503;-81
2021/10/01 21:44:29;;;;;;;1.50;1.40;;;11.30;99.90;;;;;;4973123;28;20515;-78
2021/10/01 21:47:20;;;;;;;1.60;1.50;;;11.30;99.90;;;;;;4955837;28;20474;-78
2021/10/01 21:50:04;;;;;;;1.58;1.25;;;11.20;99.90;;;;;;4962373;28;20427;-79
2021/10/01 21:52:50;;;;;;;1.38;1.30;;;11.20;99.90;;;;;;4974792;28;20427;-78
2021/10/01 21:55:37;;;;;;;1.30;1.20;;;11.10;99.90;;;;;;4947843;28;20573;-79